Time;durP1;ratioP1;P1;durP2;ratioP2;P2;SDS_P1;SDS_P2;PMS_P1;PMS_P2;Temp;Humidity;BMP_temperature;BMP_pressure;BME280_temperature;BME280_humidity;BME280_pressure;Samples;Min_cycle;Max_cycle;Signal;HPM_P1;HPM_P2
2022/06/12 00:01:51;;;;;;;9.23;3.13;;;;;;;17.67;72.66;102019.09;5008303;28;20121;-70
2022/06/12 00:04:17;;;;;;;9.40;2.70;;;;;;;17.64;72.80;102017.63;5002655;28;20030;-70
2022/06/12 00:06:42;;;;;;;11.52;3.03;;;;;;;17.60;72.96;102013.72;4987955;28;20034;-70
2022/06/12 00:09:08;;;;;;;8.15;2.70;;;;;;;17.55;73.24;102023.09;4997700;28;20500;-70
2022/06/12 00:11:34;;;;;;;9.77;3.30;;;;;;;17.51;73.46;102014.75;4984654;28;20178;-70
2022/06/12 00:14:03;;;;;;;12.82;2.88;;;;;;;17.46;73.38;102012.66;4984258;28;20389;-70
2022/06/12 00:16:32;;;;;;;9.13;2.60;;;;;;;17.39;73.82;102019.56;4984087;28;20045;-70
2022/06/12 00:18:58;;;;;;;5.95;2.05;;;;;;;17.31;74.16;102017.81;4996694;28;20099;-70
2022/06/12 00:21:25;;;;;;;6.53;2.50;;;;;;;17.23;74.32;102015.22;4998089;28;20060;-69
2022/06/12 00:23:57;;;;;;;12.90;3.03;;;;;;;17.20;74.43;102015.56;4979467;28;20484;-69
2022/06/12 00:26:30;;;;;;;11.75;2.50;;;;;;;17.19;74.58;102018.34;4997199;28;20120;-70
2022/06/12 00:29:05;;;;;;;7.28;2.75;;;;;;;17.14;74.62;102021.50;4979614;28;20046;-69
2022/06/12 00:31:34;;;;;;;10.55;2.63;;;;;;;17.11;74.14;102013.97;5000106;28;20546;-70
2022/06/12 00:34:01;;;;;;;8.88;2.53;;;;;;;17.06;74.34;102013.66;4995612;28;20396;-69
2022/06/12 00:36:27;;;;;;;8.50;2.67;;;;;;;17.01;74.22;102005.47;4992544;28;20040;-70
2022/06/12 00:38:52;;;;;;;10.60;2.50;;;;;;;16.97;74.14;102012.88;4968221;28;20034;-69
2022/06/12 00:41:18;;;;;;;8.82;2.80;;;;;;;16.91;74.04;102005.66;4989017;28;20034;-69
2022/06/12 00:43:45;;;;;;;8.00;3.13;;;;;;;16.88;74.18;102009.47;4986238;28;20068;-70
2022/06/12 00:46:49;;;;;;;7.10;2.95;;;;;;;16.81;74.32;102005.03;4990636;28;20563;-70
2022/06/12 00:49:24;;;;;;;7.90;2.25;;;;;;;16.78;74.44;102016.63;4996970;28;20492;-70
2022/06/12 00:51:56;;;;;;;8.48;2.38;;;;;;;16.73;74.73;102018.97;5020434;28;20088;-70
2022/06/12 00:54:24;;;;;;;8.98;2.88;;;;;;;16.70;74.75;102022.72;5022893;28;20117;-69
2022/06/12 00:56:54;;;;;;;8.02;2.55;;;;;;;16.64;74.94;102015.53;5004599;28;20488;-69
2022/06/12 00:59:33;;;;;;;14.25;2.72;;;;;;;16.62;74.85;102014.06;5001448;28;20500;-70
2022/06/12 01:01:59;;;;;;;5.63;2.00;;;;;;;16.57;75.12;102005.91;5002813;28;20115;-70
2022/06/12 01:07:14;;;;;;;16.20;3.00;;;;;;;16.47;75.07;102011.31;4994774;28;20038;-70
2022/06/12 01:09:43;;;;;;;8.23;2.38;;;;;;;16.42;75.20;102009.19;5004695;28;20175;-69
2022/06/12 01:12:13;;;;;;;13.98;2.35;;;;;;;16.39;75.16;102006.06;5004387;28;20068;-69
2022/06/12 01:14:51;;;;;;;12.27;2.70;;;;;;;16.35;75.10;102005.59;5006123;28;20508;-70
2022/06/12 01:17:19;;;;;;;8.57;2.13;;;;;;;16.31;75.24;102006.91;4998875;28;20061;-69
2022/06/12 01:19:54;;;;;;;7.55;2.40;;;;;;;16.25;75.39;102002.31;4987345;28;20475;-69
2022/06/12 01:22:39;;;;;;;7.45;2.25;;;;;;;16.17;75.74;102010.19;4982809;28;20030;-70
2022/06/12 01:25:20;;;;;;;11.23;2.03;;;;;;;16.06;75.94;102009.50;4987205;28;20025;-69
2022/06/12 01:28:09;;;;;;;8.82;3.15;;;;;;;15.99;76.10;102013.75;5001893;28;20040;-69
2022/06/12 01:30:41;;;;;;;8.77;2.22;;;;;;;15.94;76.14;102005.59;5001624;28;20117;-69
2022/06/12 01:33:09;;;;;;;10.40;2.85;;;;;;;15.91;76.19;102011.13;5020450;28;20064;-70
2022/06/12 01:35:46;;;;;;;12.48;3.35;;;;;;;15.83;76.37;102008.53;4999252;28;20036;-70
2022/06/12 01:38:19;;;;;;;12.10;2.65;;;;;;;15.77;76.57;102010.00;5002462;28;20038;-70
2022/06/12 01:41:01;;;;;;;11.45;2.58;;;;;;;15.70;76.83;102008.94;5001913;28;20034;-70
2022/06/12 01:43:46;;;;;;;15.43;4.25;;;;;;;15.67;76.83;102006.66;5017778;28;20404;-69
2022/06/12 01:46:59;;;;;;;8.65;2.53;;;;;;;15.61;77.10;102010.72;4986983;28;20065;-70
2022/06/12 01:49:43;;;;;;;10.43;3.03;;;;;;;15.53;77.50;102008.09;4971984;28;20301;-70
2022/06/12 01:52:28;;;;;;;10.70;2.92;;;;;;;15.47;77.63;102008.75;5001977;28;20476;-69
2022/06/12 01:55:06;;;;;;;11.82;3.70;;;;;;;15.44;77.81;102017.69;5002690;28;20124;-70
2022/06/12 01:57:37;;;;;;;7.47;2.42;;;;;;;15.42;77.82;102008.38;5000106;28;20033;-69
2022/06/12 02:00:10;;;;;;;9.43;2.30;;;;;;;15.41;77.85;102011.97;5014067;28;20546;-70
2022/06/12 02:02:46;;;;;;;9.60;3.22;;;;;;;15.35;77.59;102003.81;4997738;28;20134;-69
2022/06/12 02:05:19;;;;;;;11.88;3.50;;;;;;;15.32;77.59;101998.88;5002274;28;20405;-69
2022/06/12 02:08:15;;;;;;;8.57;2.33;;;;;;;15.17;78.01;102003.06;5004704;28;20032;-70
2022/06/12 02:10:48;;;;;;;8.27;2.53;;;;;;;15.06;78.33;102008.56;4997491;28;20100;-69
2022/06/12 02:13:18;;;;;;;;;;;;;;;14.99;78.89;101998.75;5002548;28;20026;-70
2022/06/12 02:15:52;;;;;;;9.30;2.63;;;;;;;14.96;78.96;102006.91;5002627;28;20004;-70
2022/06/12 02:18:26;;;;;;;8.27;3.25;;;;;;;14.94;79.21;102001.00;4997252;28;20088;-70
2022/06/12 02:21:03;;;;;;;11.25;3.78;;;;;;;14.95;79.11;102005.25;4987916;28;20037;-69
2022/06/12 02:23:41;;;;;;;9.30;2.88;;;;;;;14.92;79.27;102000.34;4968933;28;20404;-70
2022/06/12 02:26:11;;;;;;;11.13;2.70;;;;;;;14.89;79.24;102000.66;5014840;28;20751;-70
2022/06/12 02:28:48;;;;;;;9.50;2.60;;;;;;;14.88;78.95;101999.03;4986512;28;20559;-70
2022/06/12 02:31:21;;;;;;;7.53;2.45;;;;;;;14.83;79.20;101998.66;5000993;28;20045;-70
2022/06/12 02:33:55;;;;;;;8.60;3.45;;;;;;;14.75;79.30;101998.63;5002842;28;20050;-70
2022/06/12 02:36:32;;;;;;;11.77;2.72;;;;;;;14.71;79.79;102005.09;4999939;28;20034;-70
2022/06/12 02:39:27;;;;;;;12.43;3.22;;;;;;;14.65;79.85;102001.31;5015578;28;20099;-71
2022/06/12 02:41:58;;;;;;;7.47;3.38;;;;;;;14.62;79.96;102000.81;5000296;28;20041;-70
2022/06/12 02:44:36;;;;;;;6.88;3.00;;;;;;;14.60;80.04;102003.59;5001343;28;20053;-70
2022/06/12 02:47:08;;;;;;;11.23;2.95;;;;;;;14.60;79.83;101998.38;4984549;28;20073;-70
2022/06/12 02:49:36;;;;;;;5.88;2.53;;;;;;;14.58;79.62;101995.91;4983659;28;20045;-70
2022/06/12 02:52:11;;;;;;;9.60;3.10;;;;;;;14.55;79.56;101990.97;5002778;28;20057;-70
2022/06/12 02:54:53;;;;;;;9.25;2.28;;;;;;;14.53;79.74;101997.31;5013679;28;20029;-70
2022/06/12 02:57:19;;;;;;;10.43;2.22;;;;;;;14.47;79.09;101998.75;4972201;28;20064;-70
2022/06/12 02:59:56;;;;;;;7.70;2.50;;;;;;;14.44;79.72;102000.84;5008983;28;22244;-71
2022/06/12 03:02:39;;;;;;;6.18;2.35;;;;;;;14.40;79.91;102001.13;4987383;28;20026;-71
2022/06/12 03:05:31;;;;;;;13.05;2.70;;;;;;;14.37;80.09;101991.00;5003583;28;20038;-71
2022/06/12 03:08:16;;;;;;;6.32;2.28;;;;;;;14.35;79.98;101999.94;4968668;28;20044;-70
2022/06/12 03:11:09;;;;;;;9.07;2.55;;;;;;;14.30;79.94;102008.25;4989257;28;20392;-70
2022/06/12 03:13:37;;;;;;;8.73;2.40;;;;;;;14.28;79.90;102006.72;4987163;28;20414;-70
2022/06/12 03:16:08;;;;;;;6.88;2.75;;;;;;;14.25;79.82;101994.81;4972211;28;20044;-70
2022/06/12 03:18:38;;;;;;;7.50;2.30;;;;;;;14.22;79.89;102005.53;4998093;28;20481;-71
2022/06/12 03:21:31;;;;;;;9.80;2.95;;;;;;;14.18;79.91;102009.44;4988801;28;20052;-70
2022/06/12 03:24:23;;;;;;;6.82;2.25;;;;;;;14.16;79.82;102006.16;5003887;28;20036;-70
2022/06/12 03:26:48;;;;;;;6.15;2.40;;;;;;;14.12;79.81;102007.44;5014703;28;20048;-69
2022/06/12 03:29:26;;;;;;;8.70;2.60;;;;;;;14.06;79.79;102011.44;5002848;28;20034;-70
2022/06/12 03:32:21;;;;;;;10.32;3.00;;;;;;;14.00;80.01;102012.06;5000536;28;20034;-70
2022/06/12 03:34:57;;;;;;;7.65;2.60;;;;;;;13.98;80.24;102012.19;4986530;28;20030;-70
2022/06/12 03:37:35;;;;;;;7.28;2.22;;;;;;;13.96;80.65;102018.53;4983951;28;20076;-70
2022/06/12 03:40:05;;;;;;;7.68;2.42;;;;;;;13.92;80.71;102023.22;5019052;28;20025;-70
2022/06/12 03:42:33;;;;;;;7.28;2.85;;;;;;;13.91;80.88;102031.19;4999047;28;20038;-70
2022/06/12 03:45:22;;;;;;;9.98;2.38;;;;;;;13.85;81.00;102032.59;5015055;28;20073;-70
2022/06/12 03:47:54;;;;;;;9.20;2.72;;;;;;;13.81;81.23;102033.88;5012990;28;20030;-70
2022/06/12 03:50:31;;;;;;;7.30;2.60;;;;;;;13.79;81.07;102031.41;4984499;28;20038;-70
2022/06/12 03:53:12;;;;;;;11.00;3.05;;;;;;;13.77;81.13;102038.56;5001499;28;20537;-70
2022/06/12 03:58:52;;;;;;;10.13;2.70;;;;;;;13.71;81.74;102044.38;4984822;28;20038;-70
2022/06/12 04:01:19;;;;;;;9.02;2.72;;;;;;;13.70;81.99;102037.50;4986280;28;20764;-71
2022/06/12 04:03:47;;;;;;;11.00;3.10;;;;;;;13.73;82.08;102038.97;4983575;28;20033;-70
2022/06/12 04:06:17;;;;;;;11.15;2.72;;;;;;;13.73;82.11;102036.38;4983956;28;20037;-70
2022/06/12 04:08:51;;;;;;;7.35;2.78;;;;;;;13.74;82.40;102032.81;4984356;28;20077;-71
2022/06/12 04:11:19;;;;;;;7.40;3.10;;;;;;;13.76;82.53;102036.91;4984173;28;20117;-71
2022/06/12 04:13:46;;;;;;;12.27;3.40;;;;;;;13.75;82.54;102032.69;4983858;28;20499;-70
2022/06/12 04:16:22;;;;;;;7.50;2.75;;;;;;;13.68;82.84;102029.00;4986359;28;20137;-69
2022/06/12 04:18:48;;;;;;;8.40;2.80;;;;;;;13.58;82.65;102025.63;4997983;28;20033;-70
2022/06/12 04:21:25;;;;;;;9.80;2.75;;;;;;;13.48;83.36;102027.47;5001055;28;20036;-70
2022/06/12 04:24:13;;;;;;;8.07;2.72;;;;;;;13.41;83.98;102025.47;4986526;28;20631;-70
2022/06/12 04:26:44;;;;;;;7.78;3.05;;;;;;;13.40;84.42;102033.41;5001104;28;20099;-70
2022/06/12 04:29:10;;;;;;;7.82;2.70;;;;;;;13.43;84.66;102025.31;5016841;28;20038;-70
2022/06/12 04:31:36;;;;;;;8.40;2.53;;;;;;;13.49;84.62;102023.91;5014749;28;20108;-70
2022/06/12 04:34:12;;;;;;;13.40;2.85;;;;;;;13.52;84.37;102032.25;4973765;28;20510;-70
2022/06/12 04:36:39;;;;;;;10.63;3.00;;;;;;;13.52;84.74;102021.81;5000478;28;20037;-70
2022/06/12 04:39:05;;;;;;;13.50;3.70;;;;;;;13.53;84.99;102026.06;5004093;28;20037;-70
2022/06/12 04:41:35;;;;;;;9.35;3.30;;;;;;;13.55;85.30;102023.31;5004003;28;20038;-68
2022/06/12 04:44:02;;;;;;;7.90;3.83;;;;;;;13.55;85.00;102021.53;5003173;28;20133;-70
2022/06/12 04:46:28;;;;;;;7.15;3.22;;;;;;;13.59;84.68;102016.84;5006682;28;20558;-70
2022/06/12 04:48:56;;;;;;;6.15;2.78;;;;;;;13.66;84.40;102023.13;4987555;28;20018;-70
2022/06/12 04:51:22;;;;;;;12.02;3.17;;;;;;;13.76;84.46;102023.88;5018936;28;20112;-69
2022/06/12 04:53:49;;;;;;;10.93;3.75;;;;;;;13.83;84.85;102024.94;5001795;28;20456;-70
2022/06/12 04:56:17;;;;;;;12.95;3.85;;;;;;;13.92;85.38;102027.59;5005943;28;20030;-70
2022/06/12 04:58:44;;;;;;;6.85;2.80;;;;;;;14.00;85.31;102023.31;4990510;28;20037;-70
2022/06/12 05:01:10;;;;;;;11.07;2.42;;;;;;;14.09;85.39;102016.38;5019494;28;20034;-70
2022/06/12 05:03:36;;;;;;;13.45;2.95;;;;;;;14.19;85.32;102026.72;4988330;28;20492;-70
2022/06/12 05:06:03;;;;;;;10.93;3.10;;;;;;;14.31;85.32;102024.69;5005233;28;20040;-70
2022/06/12 05:08:29;;;;;;;9.63;3.75;;;;;;;14.39;85.03;102019.53;4987506;28;20075;-69
2022/06/12 05:10:55;;;;;;;11.75;4.30;;;;;;;14.49;84.87;102017.69;5013567;28;20061;-70
2022/06/12 05:13:20;;;;;;;11.20;3.17;;;;;;;14.59;84.47;102021.03;5006265;28;20956;-70
2022/06/12 05:15:46;;;;;;;9.73;3.22;;;;;;;14.73;84.16;102016.22;5017974;28;20037;-69
2022/06/12 05:18:14;;;;;;;13.60;3.50;;;;;;;14.87;84.00;102020.88;4984427;28;20068;-70
2022/06/12 05:20:41;;;;;;;13.40;4.07;;;;;;;14.97;83.45;102021.59;4988318;28;20045;-69
2022/06/12 05:23:07;;;;;;;19.48;5.68;;;;;;;15.15;83.35;102018.91;5017597;28;20394;-69
2022/06/12 05:25:34;;;;;;;12.25;3.85;;;;;;;15.35;83.20;102022.09;4988836;28;20038;-70
2022/06/12 05:28:00;;;;;;;7.72;3.65;;;;;;;15.53;82.13;102018.56;4985166;28;20046;-70
2022/06/12 05:30:27;;;;;;;17.02;5.18;;;;;;;15.71;80.68;102018.44;4988210;28;20161;-69
2022/06/12 05:32:55;;;;;;;10.52;3.65;;;;;;;15.90;80.14;102027.84;5002716;28;20033;-70
2022/06/12 05:35:21;;;;;;;14.65;4.20;;;;;;;16.11;79.87;102022.94;4991957;28;20041;-70
2022/06/12 05:37:48;;;;;;;15.10;4.40;;;;;;;16.31;79.15;102025.22;4986194;28;20058;-70
2022/06/12 05:40:20;;;;;;;15.68;3.80;;;;;;;16.47;77.05;102024.41;5004951;28;20064;-70
2022/06/12 05:42:46;;;;;;;14.48;3.92;;;;;;;16.67;75.45;102030.94;5013575;28;20034;-69
2022/06/12 05:45:16;;;;;;;12.60;3.50;;;;;;;16.79;73.84;102020.91;4987440;28;20446;-70
2022/06/12 05:47:57;;;;;;;10.70;3.78;;;;;;;16.97;72.96;102027.75;4998014;28;20064;-70
2022/06/12 05:50:26;;;;;;;9.02;3.22;;;;;;;17.12;71.28;102024.28;4990379;28;20037;-70
2022/06/12 05:52:52;;;;;;;11.52;2.67;;;;;;;17.35;70.60;102023.53;5004822;28;20034;-70
2022/06/12 05:55:18;;;;;;;11.77;2.60;;;;;;;17.56;68.02;102030.81;4999051;28;20064;-70
2022/06/12 05:57:43;;;;;;;8.77;3.08;;;;;;;17.72;67.87;102027.25;4985026;28;20510;-70
2022/06/12 06:00:17;;;;;;;16.08;3.10;;;;;;;17.96;66.34;102026.31;4999770;28;20092;-69
2022/06/12 06:02:43;;;;;;;12.52;3.03;;;;;;;18.05;64.13;102034.94;4986535;28;20033;-69
2022/06/12 06:05:10;;;;;;;16.17;3.15;;;;;;;18.20;64.02;102035.81;4985130;28;20033;-69
2022/06/12 06:07:36;;;;;;;19.27;3.80;;;;;;;18.31;62.87;102036.38;4987826;28;20080;-69
2022/06/12 06:10:04;;;;;;;9.10;2.70;;;;;;;18.64;62.02;102042.16;4991002;28;20044;-70
2022/06/12 06:12:30;;;;;;;11.05;2.10;;;;;;;18.90;61.19;102038.31;5015963;28;20049;-70
2022/06/12 06:14:55;;;;;;;11.43;2.63;;;;;;;19.07;59.96;102031.88;5002908;28;20224;-70
2022/06/12 06:17:21;;;;;;;11.82;1.73;;;;;;;19.45;59.39;102031.72;4989245;28;20509;-69
2022/06/12 06:19:47;;;;;;;10.60;1.88;;;;;;;19.74;58.48;102030.00;5002537;28;20070;-70
2022/06/12 06:22:16;;;;;;;13.85;2.78;;;;;;;19.95;57.20;102035.31;4989360;28;20038;-70
2022/06/12 06:24:43;;;;;;;12.80;2.08;;;;;;;20.08;56.66;102039.88;5005335;28;20034;-70
2022/06/12 06:27:13;;;;;;;11.50;2.20;;;;;;;20.18;55.59;102035.09;4988716;28;20769;-70
2022/06/12 06:29:38;;;;;;;11.93;2.40;;;;;;;20.33;54.73;102039.47;4987215;28;20070;-70
2022/06/12 06:32:05;;;;;;;10.13;1.65;;;;;;;20.37;53.94;102038.06;5001714;28;20325;-70
2022/06/12 06:34:31;;;;;;;9.90;2.05;;;;;;;20.59;53.55;102031.75;4991089;28;20117;-70
2022/06/12 06:36:57;;;;;;;8.25;2.00;;;;;;;20.73;52.51;102040.56;5016610;28;20041;-71
2022/06/12 06:39:23;;;;;;;9.27;2.08;;;;;;;20.64;52.39;102031.19;5019386;28;20032;-70
2022/06/12 06:41:49;;;;;;;7.95;1.50;;;;;;;20.96;51.51;102036.84;4986528;28;20038;-69
2022/06/12 06:46:59;;;;;;;10.60;1.70;;;;;;;21.31;50.52;102047.38;5001852;28;20484;-69
2022/06/12 06:49:24;;;;;;;8.93;1.85;;;;;;;21.72;48.88;102042.03;5006573;28;20049;-70
2022/06/12 06:51:51;;;;;;;10.40;1.60;;;;;;;22.05;47.87;102035.97;4997876;28;20123;-70
2022/06/12 06:54:18;;;;;;;7.65;1.40;;;;;;;22.28;46.75;102040.88;5000737;28;20081;-69
2022/06/12 06:56:43;;;;;;;8.63;1.67;;;;;;;22.33;47.01;102046.34;5000851;28;20045;-70
2022/06/12 06:59:09;;;;;;;4.47;1.17;;;;;;;22.78;47.56;102048.31;5001465;28;20030;-69
2022/06/12 07:01:34;;;;;;;6.68;1.42;;;;;;;23.19;45.72;102043.72;4985089;28;20448;-71
2022/06/12 07:04:01;;;;;;;5.45;1.30;;;;;;;23.49;44.61;102039.53;4987822;28;20116;-69
2022/06/12 07:06:27;;;;;;;8.45;1.30;;;;;;;23.46;45.05;102031.19;5019259;28;20036;-70
2022/06/12 07:08:54;;;;;;;6.03;1.42;;;;;;;23.56;44.12;102030.72;4986826;28;20900;-71
2022/06/12 07:11:20;;;;;;;8.82;1.35;;;;;;;23.86;43.65;102033.59;4970986;28;20030;-70
2022/06/12 07:13:46;;;;;;;4.03;1.08;;;;;;;24.03;42.94;102033.88;5003394;28;20026;-70
2022/06/12 07:16:12;;;;;;;6.50;1.40;;;;;;;24.10;42.80;102032.00;5001979;28;20034;-71
2022/06/12 07:18:37;;;;;;;6.22;1.40;;;;;;;24.42;42.14;102040.69;5001280;28;20034;-70
2022/06/12 07:21:03;;;;;;;5.35;1.50;;;;;;;24.61;41.60;102035.44;5003794;28;20029;-71
2022/06/12 07:23:31;;;;;;;8.07;1.70;;;;;;;24.57;41.40;102031.59;5001485;28;20395;-70
2022/06/12 07:26:03;;;;;;;6.60;2.03;;;;;;;24.58;41.20;102026.09;5001907;28;20392;-71
2022/06/12 07:28:29;;;;;;;6.80;1.58;;;;;;;24.64;42.01;102030.50;5002528;28;20399;-69
2022/06/12 07:30:55;;;;;;;7.68;1.85;;;;;;;24.74;40.75;102027.34;4999949;28;20133;-71
2022/06/12 07:33:21;;;;;;;7.57;1.95;;;;;;;24.60;41.05;102036.44;4985855;28;20038;-70
2022/06/12 07:35:47;;;;;;;7.05;1.40;;;;;;;24.49;42.37;102030.81;5012447;28;20030;-70
2022/06/12 07:38:15;;;;;;;7.68;2.17;;;;;;;24.77;40.88;102032.19;5002086;28;20444;-70
2022/06/12 07:40:48;;;;;;;4.90;1.20;;;;;;;25.08;40.50;102032.25;5014343;28;20060;-70
2022/06/12 07:43:13;;;;;;;8.43;1.60;;;;;;;25.22;39.62;102029.22;4972249;28;20030;-71
2022/06/12 07:45:41;;;;;;;12.15;1.50;;;;;;;25.40;40.77;102028.38;5017027;28;20038;-71
2022/06/12 07:48:08;;;;;;;8.77;1.63;;;;;;;25.56;39.55;102024.28;5004062;28;20042;-70
2022/06/12 07:50:33;;;;;;;6.82;1.17;;;;;;;25.75;39.36;102024.19;5003589;28;20030;-70
2022/06/12 07:52:59;;;;;;;7.63;1.92;;;;;;;25.57;39.28;102043.66;4971310;28;20048;-68
2022/06/12 07:55:26;;;;;;;9.73;1.38;;;;;;;25.75;38.96;102040.13;4985445;28;20088;-69
2022/06/12 07:57:51;;;;;;;5.38;1.45;;;;;;;26.20;37.64;102026.34;4977329;28;20137;-70
2022/06/12 08:00:18;;;;;;;7.70;1.63;;;;;;;25.66;38.08;102034.34;4983862;28;20123;-70
2022/06/12 08:02:46;;;;;;;5.82;1.38;;;;;;;25.85;37.32;102029.75;4999216;28;20045;-69
2022/06/12 08:05:13;;;;;;;6.05;1.13;;;;;;;26.16;37.52;102028.66;5014835;28;20075;-70
2022/06/12 08:07:39;;;;;;;9.93;2.05;;;;;;;26.31;37.07;102028.19;4996174;28;20046;-70
2022/06/12 08:10:05;;;;;;;8.68;2.05;;;;;;;26.38;37.57;102026.22;4986008;28;20135;-70
2022/06/12 08:12:39;;;;;;;7.95;2.28;;;;;;;26.57;37.50;102031.41;4997091;28;20030;-69
2022/06/12 08:15:09;;;;;;;4.85;1.30;;;;;;;26.65;37.56;102033.72;4986497;28;20038;-70
2022/06/12 08:17:34;;;;;;;4.63;1.30;;;;;;;26.66;36.66;102031.91;4985900;28;20117;-70
2022/06/12 08:22:44;;;;;;;13.02;1.80;;;;;;;26.94;39.13;102031.94;5000418;28;20279;-71
2022/06/12 08:25:10;;;;;;;5.20;1.40;;;;;;;27.04;36.33;102030.50;4983914;28;20559;-71
2022/06/12 08:27:36;;;;;;;6.32;1.17;;;;;;;26.99;37.06;102033.88;4987679;28;20483;-70
2022/06/12 08:30:04;;;;;;;6.05;1.70;;;;;;;27.01;37.25;102031.78;5002071;28;20090;-70
2022/06/12 08:32:30;;;;;;;8.35;1.40;;;;;;;27.02;35.81;102027.28;4997039;28;20029;-71
2022/06/12 08:35:00;;;;;;;7.72;1.63;;;;;;;27.10;35.98;102030.34;5012260;28;20463;-70
2022/06/12 08:37:32;;;;;;;9.13;1.77;;;;;;;27.36;36.17;102031.66;4986596;28;20171;-70
2022/06/12 08:39:59;;;;;;;11.10;1.63;;;;;;;27.63;37.93;102028.38;5000611;28;20498;-71
2022/06/12 08:42:28;;;;;;;7.03;1.70;;;;;;;27.36;36.26;102020.22;4977598;28;20074;-69
2022/06/12 08:45:07;;;;;;;6.53;1.73;;;;;;;27.46;37.14;102014.25;4990184;28;20042;-70
2022/06/12 08:47:58;;;;;;;4.95;1.52;;;;;;;27.80;36.32;102014.28;4988961;28;20088;-71
2022/06/12 08:50:50;;;;;;;4.53;1.25;;;;;;;27.49;35.77;102011.13;4984983;28;20095;-71
2022/06/12 08:53:21;;;;;;;12.60;4.10;;;;;;;27.54;35.65;102009.34;5001165;28;20056;-70
2022/06/12 08:55:57;;;;;;;6.57;1.73;;;;;;;27.67;36.20;102010.06;5012527;28;20116;-70
2022/06/12 08:58:31;;;;;;;7.85;1.90;;;;;;;27.48;35.73;102007.66;4983671;28;20393;-70
2022/06/12 09:00:58;;;;;;;7.93;2.15;;;;;;;27.24;36.27;102004.28;4999975;28;20037;-69
2022/06/12 09:03:28;;;;;;;7.57;1.70;;;;;;;27.48;36.80;102002.34;4987236;28;20022;-70
2022/06/12 09:06:02;;;;;;;4.95;1.35;;;;;;;27.68;36.37;102001.84;4999137;28;20050;-70
2022/06/12 09:08:46;;;;;;;8.30;3.00;;;;;;;27.79;36.50;101996.69;4999971;28;20060;-70
2022/06/12 09:11:36;;;;;;;9.05;1.92;;;;;;;27.53;35.18;101990.94;4985226;28;20580;-71
2022/06/12 09:14:39;;;;;;;12.23;1.65;;;;;;;27.32;37.84;101993.25;5002798;28;20034;-70
2022/06/12 09:17:17;;;;;;;9.45;1.60;;;;;;;27.52;37.89;101989.31;5003336;28;20038;-71
2022/06/12 09:20:01;;;;;;;6.47;1.35;;;;;;;27.88;36.91;101992.56;5003569;28;20040;-70
2022/06/12 09:22:59;;;;;;;16.48;3.28;;;;;;;27.82;37.46;101988.19;4984988;28;20167;-70
2022/06/12 09:25:50;;;;;;;12.68;2.00;;;;;;;27.98;36.71;101984.75;4941886;28;20042;-70
2022/06/12 09:28:54;;;;;;;10.10;2.13;;;;;;;27.91;37.33;101984.91;5002468;28;20034;-70
2022/06/12 09:31:44;;;;;;;13.23;2.58;;;;;;;27.70;36.39;101980.28;5001643;28;20780;-70
2022/06/12 09:34:54;;;;;;;6.43;1.30;;;;;;;27.91;37.32;101978.78;4987425;28;20101;-70
2022/06/12 09:40:37;;;;;;;11.25;2.72;;;;;;;27.40;37.31;101975.28;5004191;28;20038;-71
2022/06/12 09:43:34;;;;;;;8.93;1.75;;;;;;;27.74;38.42;101978.75;5005285;28;20033;-70
2022/06/12 09:46:07;;;;;;;12.52;2.10;;;;;;;27.70;38.24;101972.31;4993259;28;20037;-70
2022/06/12 09:48:50;;;;;;;;;;;;;;;27.46;38.47;101971.66;5004021;28;20036;-71
2022/06/12 09:51:29;;;;;;;;;;;;;;;27.48;38.42;101969.56;4990207;28;20383;-70
2022/06/12 09:54:29;;;;;;;15.57;2.60;;;;;;;27.47;39.65;101973.28;5000216;28;19931;-70
2022/06/12 09:57:04;;;;;;;14.30;2.83;;;;;;;27.89;38.22;101983.53;4995940;28;20042;-70
2022/06/12 09:59:54;;;;;;;15.07;2.15;;;;;;;27.86;37.26;101974.16;5005372;28;20069;-70
2022/06/12 10:02:27;;;;;;;11.57;2.47;;;;;;;27.88;38.19;101969.38;5005634;28;20076;-70
2022/06/12 10:05:22;;;;;;;13.70;2.75;;;;;;;28.11;39.19;101967.59;5003896;28;20128;-70
2022/06/12 10:08:02;;;;;;;9.90;2.13;;;;;;;28.15;38.98;101966.06;4972690;28;20452;-70
2022/06/12 10:10:36;;;;;;;10.82;2.15;;;;;;;28.16;39.70;101962.31;4999737;28;20050;-70
2022/06/12 10:13:07;;;;;;;11.93;2.15;;;;;;;27.87;39.30;101964.28;5018211;28;20120;-71
2022/06/12 10:15:40;;;;;;;12.05;2.47;;;;;;;28.00;39.37;101956.00;5004484;28;20787;-71
2022/06/12 10:18:14;;;;;;;14.75;2.67;;;;;;;27.60;40.55;101964.97;5002123;28;20432;-71
2022/06/12 10:20:44;;;;;;;10.13;2.38;;;;;;;27.35;39.34;101962.69;5022561;28;20038;-71
2022/06/12 10:23:10;;;;;;;16.58;2.08;;;;;;;27.45;38.68;101957.53;5001729;28;20403;-71
2022/06/12 10:25:39;;;;;;;14.82;2.13;;;;;;;27.22;39.35;101955.78;5003428;28;20037;-69
2022/06/12 10:28:20;;;;;;;12.57;2.15;;;;;;;27.50;39.09;101959.47;4991357;28;20034;-70
2022/06/12 10:30:59;;;;;;;10.75;2.10;;;;;;;27.79;38.28;101962.06;5010783;28;20476;-70
2022/06/12 10:33:33;;;;;;;16.33;2.97;;;;;;;27.90;38.52;101958.53;5020634;28;20034;-70
2022/06/12 10:36:02;;;;;;;9.18;2.45;;;;;;;27.88;39.14;101957.94;5004715;28;20037;-71
2022/06/12 10:38:34;;;;;;;14.63;2.20;;;;;;;27.54;40.26;101948.09;4988915;28;20538;-71
2022/06/12 10:41:03;;;;;;;9.02;2.15;;;;;;;27.79;40.59;101946.88;4992653;28;20091;-70
2022/06/12 10:43:35;;;;;;;8.98;2.40;;;;;;;28.11;39.84;101947.06;5005339;28;20480;-70
2022/06/12 10:46:23;;;;;;;8.63;2.05;;;;;;;27.31;38.82;101935.75;5002007;28;20109;-69
2022/06/12 10:49:16;;;;;;;11.30;1.92;;;;;;;26.90;40.16;101940.31;4988412;28;20049;-70
2022/06/12 10:51:43;;;;;;;9.95;2.05;;;;;;;27.11;39.58;101938.03;5017443;28;20053;-70
2022/06/12 10:54:16;;;;;;;10.35;2.53;;;;;;;27.40;38.72;101930.81;5005560;28;20037;-71
2022/06/12 10:57:22;;;;;;;10.77;2.75;;;;;;;27.55;37.96;101919.59;5016883;28;20038;-69
2022/06/12 10:59:55;;;;;;;9.45;2.13;;;;;;;27.29;38.53;101931.69;5020831;28;20500;-70
2022/06/12 11:02:35;;;;;;;14.23;2.60;;;;;;;27.58;39.91;101927.91;4974646;28;20045;-71
2022/06/12 11:05:29;;;;;;;8.52;2.03;;;;;;;27.34;39.92;101924.59;5001719;28;20081;-70
2022/06/12 11:08:00;;;;;;;11.27;2.58;;;;;;;27.62;39.85;101930.09;5003843;28;20038;-70
2022/06/12 11:10:26;;;;;;;13.43;2.35;;;;;;;27.85;38.53;101921.91;5002839;28;20043;-71
2022/06/12 11:13:10;;;;;;;13.35;1.95;;;;;;;27.89;39.00;101920.38;5008003;28;20126;-71
2022/06/12 11:16:00;;;;;;;9.13;1.95;;;;;;;28.07;37.36;101924.63;5001788;28;20037;-70
2022/06/12 11:18:41;;;;;;;10.77;2.08;;;;;;;27.84;37.89;101916.81;4994938;28;20042;-70
2022/06/12 11:21:29;;;;;;;9.73;1.70;;;;;;;27.85;37.60;101921.91;4999632;28;20434;-70
2022/06/12 11:24:21;;;;;;;10.55;1.92;;;;;;;27.82;37.90;101925.06;5018037;28;20037;-70
2022/06/12 11:26:53;;;;;;;9.98;2.72;;;;;;;28.10;39.00;101921.47;4974833;28;20030;-71
2022/06/12 11:29:22;;;;;;;10.00;1.92;;;;;;;28.09;38.74;101916.41;5002476;28;20469;-71
2022/06/12 11:32:06;;;;;;;7.32;1.83;;;;;;;28.33;37.09;101923.09;4995695;28;20049;-70
2022/06/12 11:35:04;;;;;;;7.68;1.85;;;;;;;28.13;36.53;101917.50;5002014;28;20062;-70
2022/06/12 11:37:47;;;;;;;8.73;1.60;;;;;;;28.55;36.84;101914.31;4927705;28;20050;-72
2022/06/12 11:40:28;;;;;;;8.68;2.10;;;;;;;28.45;36.60;101919.50;4986804;28;20050;-70
2022/06/12 11:43:29;;;;;;;12.13;2.90;;;;;;;27.33;37.59;101920.34;5014735;28;20140;-71
2022/06/12 11:46:09;;;;;;;9.63;1.98;;;;;;;27.45;37.76;101917.59;4980504;28;20469;-71
2022/06/12 11:49:01;;;;;;;5.53;1.70;;;;;;;27.50;37.55;101916.84;5003028;28;20061;-71
2022/06/12 11:52:07;;;;;;;6.38;1.70;;;;;;;27.47;35.38;101904.03;5004662;28;20046;-71
2022/06/12 11:54:50;;;;;;;6.65;1.67;;;;;;;27.97;36.61;101908.50;5011139;28;20042;-70
2022/06/12 11:57:32;;;;;;;9.43;2.10;;;;;;;28.20;36.40;101899.47;4998847;28;20064;-70
2022/06/12 12:00:31;;;;;;;6.07;1.45;;;;;;;28.47;35.09;101898.72;5005440;28;20116;-71
2022/06/12 12:03:00;;;;;;;8.82;1.75;;;;;;;28.34;34.48;101891.91;5019077;28;20059;-71
2022/06/12 12:05:36;;;;;;;3.97;1.30;;;;;;;28.23;33.26;101890.16;5016194;28;20117;-71
2022/06/12 12:08:19;;;;;;;5.70;1.60;;;;;;;28.02;33.35;101889.91;5000657;28;20064;-70